Hikarimaru No.17 — JD2956 — position and weather

sailwx.info

Track history (hours):
 
Tides and Currents Weather Stations Pressure Air Temp Water Temp Dewpoint Dewpoint Depression Visibility Wind Speed Wind Dir Waves Ship Positions

Hikarimaru No.17

Last reported at 2016-Aug-29 05:33 UTC. Time now 2016-Aug-29 13:04 UTC.
Position N 34°35' E 135°05'.

Length 105 m; draft 6.5 m.

Type: Tanker. MMSI: 431000984.

Date/timePositionNaut miles runAvg speedWind from/ knotsBaromVisibWave heightAir tempDewpointWater temp
2016-Aug-29 05:33N 34°35' E 135°05'1412.3
2016-Aug-29 04:23N 34°21' E 135°01'1011.7
2016-Aug-29 03:33N 34°12' E 135°02'9 2.0
2016-Aug-28 23:21N 34°09' E 135°11'2 2.1
2016-Aug-28 22:33N 34°09' E 135°09'0 0.0
2016-Aug-28 21:33N 34°09' E 135°09'0 0.0
2016-Aug-28 20:33N 34°09' E 135°09'0 0.1
2016-Aug-28 19:33N 34°09' E 135°09'0 0.0
2016-Aug-28 18:30N 34°09' E 135°09'0 0.0
2016-Aug-28 17:33N 34°09' E 135°09'0 0.0
2016-Aug-28 16:33N 34°09' E 135°09'0 0.1
2016-Aug-28 15:33N 34°09' E 135°09'0 0.0
2016-Aug-28 14:33N 34°09' E 135°09'0 0.0
2016-Aug-28 13:30N 34°09' E 135°09'0 0.0
2016-Aug-28 12:30N 34°09' E 135°09'0 0.1
2016-Aug-28 11:33N 34°09' E 135°09'0 0.0
2016-Aug-28 10:33N 34°09' E 135°09'0 0.1
2016-Aug-28 09:33N 34°09' E 135°09'0 0.0
2016-Aug-28 08:30N 34°09' E 135°09'1 1.5
2016-Aug-28 07:33N 34°10' E 135°08'1111.4
2016-Aug-28 06:33N 34°19' E 134°59'1212.3
2016-Aug-28 05:33N 34°27' E 135°10'1313.3
2016-Aug-28 04:33N 34°33' E 135°24'1 0.8
2016-Aug-28 03:22N 34°33' E 135°25'0 0.0
2016-Aug-28 02:32N 34°33' E 135°25'0 0.0
2016-Aug-28 01:33N 34°33' E 135°25'0 0.0
2016-Aug-28 00:33N 34°33' E 135°25'2 2.4
2016-Aug-27 23:33N 34°33' E 135°22'3 2.5
2016-Aug-27 22:32N 34°32' E 135°19'0 0.0
2016-Aug-27 21:32N 34°32' E 135°19'0 0.0
2016-Aug-27 20:33N 34°32' E 135°19'0 0.0
2016-Aug-27 19:33N 34°32' E 135°19'0 0.0
2016-Aug-27 18:32N 34°32' E 135°19'0 0.0
2016-Aug-27 17:26N 34°32' E 135°19'0 0.0
2016-Aug-27 16:26N 34°32' E 135°19'0 0.0
2016-Aug-27 15:32N 34°32' E 135°19'0 0.0
2016-Aug-27 14:32N 34°32' E 135°19'0 0.0
2016-Aug-27 13:32N 34°32' E 135°19'0 0.0
2016-Aug-27 12:32N 34°32' E 135°19'0 0.0
2016-Aug-27 11:32N 34°32' E 135°19'0 0.0
2016-Aug-27 10:32N 34°32' E 135°19'0 0.0
2016-Aug-27 09:32N 34°32' E 135°19'0 0.0
2016-Aug-27 08:32N 34°32' E 135°19'0 0.0
2016-Aug-27 07:32N 34°32' E 135°20'5 0.9
2016-Aug-27 02:33N 34°33' E 135°14'1514.2
2016-Aug-27 01:28N 34°36' E 134°56'1 0.0
2016-Aug-25 06:27N 34°37' E 134°57'2211.4
2016-Aug-25 04:32N 34°16' E 134°60'10 2.4
2016-Aug-25 00:10N 34°07' E 135°07'2 3.4
2016-Aug-24 23:31N 34°09' E 135°09'0 0.0
2016-Aug-24 22:31N 34°09' E 135°09'0 0.0
2016-Aug-24 21:31N 34°09' E 135°09'0 0.0
2016-Aug-24 20:31N 34°09' E 135°09'0 0.1
2016-Aug-24 19:31N 34°09' E 135°09'0 0.1
2016-Aug-24 18:31N 34°09' E 135°09'0 0.0
2016-Aug-24 17:31N 34°09' E 135°09'0 0.0
2016-Aug-24 16:31N 34°09' E 135°09'0 0.0
2016-Aug-24 15:31N 34°09' E 135°09'0 0.0
2016-Aug-24 14:31N 34°09' E 135°09'0 0.0
2016-Aug-24 13:25N 34°09' E 135°09'0 0.0
2016-Aug-24 12:25N 34°09' E 135°09'0 0.0
2016-Aug-24 11:25N 34°09' E 135°09'0 0.0
2016-Aug-24 10:31N 34°09' E 135°09'0 0.0
2016-Aug-24 09:31N 34°09' E 135°09'0 0.0
2016-Aug-24 08:31N 34°09' E 135°09'0 0.0
2016-Aug-24 07:31N 34°09' E 135°09'0 0.0
2016-Aug-24 06:31N 34°09' E 135°09'6 3.2
2016-Aug-24 04:33N 34°11' E 135°02'1 0.6
2016-Aug-24 03:32N 34°11' E 135°02'6 6.1
2016-Aug-24 02:33N 34°09' E 135°09'2 0.7
2016-Aug-23 23:18N 34°09' E 135°11'2 2.3
2016-Aug-23 22:32N 34°10' E 135°09'0 0.0
2016-Aug-23 21:32N 34°10' E 135°09'0 0.0
2016-Aug-23 20:32N 34°10' E 135°09'0 0.0
2016-Aug-23 19:32N 34°10' E 135°09'1 0.6
2016-Aug-23 18:34N 34°10' E 135°09'1211.8
2016-Aug-23 17:30N 34°19' E 134°59'1313.3
2016-Aug-23 16:32N 34°32' E 135°02'7 0.2
2016-Aug-22 07:31N 34°36' E 134°54'9 9.2
2016-Aug-22 06:33N 34°35' E 135°05'1512.2
2016-Aug-22 05:22N 34°21' E 135°01'1012.2
2016-Aug-22 04:33N 34°11' E 135°00'8 1.1
2016-Aug-21 21:24N 34°04' E 135°03'8 7.9
2016-Aug-21 20:26N 34°10' E 135°09'0 0.0
2016-Aug-21 19:32N 34°10' E 135°09'0 0.0
2016-Aug-21 18:32N 34°10' E 135°09'0 0.0
2016-Aug-21 17:32N 34°10' E 135°09'0 0.0
2016-Aug-21 16:32N 34°10' E 135°09'0 0.0
2016-Aug-21 15:29N 34°10' E 135°09'0 0.0
2016-Aug-21 14:29N 34°10' E 135°09'0 0.1
2016-Aug-21 13:32N 34°10' E 135°09'0 0.1
2016-Aug-21 12:29N 34°10' E 135°09'0 0.0
2016-Aug-21 11:29N 34°10' E 135°09'0 0.0
2016-Aug-21 10:32N 34°10' E 135°09'0 0.0
2016-Aug-21 09:32N 34°10' E 135°09'0 0.1
2016-Aug-21 08:32N 34°10' E 135°09'0 0.0
2016-Aug-21 07:32N 34°10' E 135°09'0 0.1
2016-Aug-21 06:05N 34°10' E 135°09'0 0.0
2016-Aug-21 05:29N 34°10' E 135°09'0 0.0
2016-Aug-21 04:32N 34°10' E 135°09'0 0.0
2016-Aug-21 03:05N 34°10' E 135°09'0 0.0
2016-Aug-21 02:32N 34°10' E 135°09'0 0.1
2016-Aug-21 01:29N 34°10' E 135°09'0 0.0
2016-Aug-20 23:32N 34°10' E 135°09'0 0.0
2016-Aug-20 22:32N 34°10' E 135°09'0 0.0
2016-Aug-20 21:32N 34°10' E 135°09'0 0.1
2016-Aug-20 20:32N 34°10' E 135°09'0 0.0
2016-Aug-20 19:32N 34°10' E 135°09'0 0.0
2016-Aug-20 18:29N 34°10' E 135°09'0 0.0
2016-Aug-20 17:32N 34°10' E 135°09'0 0.0
2016-Aug-20 16:32N 34°10' E 135°09'0 0.0
2016-Aug-20 15:29N 34°10' E 135°09'0 0.1
2016-Aug-20 14:26N 34°10' E 135°09'0 0.1
2016-Aug-20 13:32N 34°10' E 135°09'0 0.0
2016-Aug-20 12:29N 34°10' E 135°09'0 0.0
2016-Aug-20 11:32N 34°10' E 135°09'0 0.0
2016-Aug-20 10:29N 34°10' E 135°09'0 0.1
2016-Aug-20 09:29N 34°10' E 135°09'0 0.1
2016-Aug-20 08:29N 34°10' E 135°09'2 1.2
2016-Aug-20 06:33N 34°08' E 135°07'1 0.7
2016-Aug-20 05:33N 34°07' E 135°07'0 0.0
2016-Aug-20 04:21N 34°07' E 135°07'0 0.0
2016-Aug-20 03:25N 34°07' E 135°07'0 0.0
2016-Aug-20 02:33N 34°07' E 135°07'0 0.0
2016-Aug-20 01:32N 34°07' E 135°07'0 0.1
2016-Aug-20 00:31N 34°07' E 135°07'6 5.8
2016-Aug-19 23:32N 34°13' E 135°09'0 0.0
2016-Aug-19 22:32N 34°13' E 135°09'0 0.0
2016-Aug-19 21:32N 34°13' E 135°09'0 0.0
2016-Aug-19 20:32N 34°13' E 135°09'0 0.0
2016-Aug-19 19:32N 34°13' E 135°09'0 0.0
2016-Aug-19 18:32N 34°13' E 135°09'0 0.0
2016-Aug-19 17:32N 34°13' E 135°09'0 0.0
2016-Aug-19 16:32N 34°13' E 135°09'0 0.0
2016-Aug-19 15:32N 34°13' E 135°09'0 0.0
2016-Aug-19 14:32N 34°13' E 135°09'0 0.0
2016-Aug-19 13:32N 34°13' E 135°09'0 0.0
2016-Aug-19 12:32N 34°13' E 135°09'0 0.0
2016-Aug-19 11:32N 34°13' E 135°09'0 0.0
2016-Aug-19 10:32N 34°13' E 135°09'0 0.0
2016-Aug-19 09:32N 34°13' E 135°09'0 0.0
2016-Aug-19 08:32N 34°13' E 135°09'0 0.0
2016-Aug-19 07:32N 34°13' E 135°09'0 0.0
2016-Aug-19 06:32N 34°13' E 135°09'4 4.4
2016-Aug-19 05:34N 34°11' E 135°04'  
Track history (hours):
 
Tides and Currents Weather Stations Pressure Air Temp Water Temp Dewpoint Dewpoint Depression Visibility Wind Speed Wind Dir Waves Ship Positions

Hikarimaru No.17

Last reported at 2016-Aug-29 05:33 UTC. Time now 2016-Aug-29 13:04 UTC.
Position N 34°35' E 135°05'.

Length 105 m; draft 6.5 m.

Type: Tanker. MMSI: 431000984.

Date/timePositionNaut miles runAvg speedWind from/ knotsBaromVisibWave heightAir tempDewpointWater temp
2016-Aug-29 05:33N 34°35' E 135°05'1412.3
2016-Aug-29 04:23N 34°21' E 135°01'1011.7
2016-Aug-29 03:33N 34°12' E 135°02'9 2.0
2016-Aug-28 23:21N 34°09' E 135°11'2 2.1
2016-Aug-28 22:33N 34°09' E 135°09'0 0.0
2016-Aug-28 21:33N 34°09' E 135°09'0 0.0
2016-Aug-28 20:33N 34°09' E 135°09'0 0.1
2016-Aug-28 19:33N 34°09' E 135°09'0 0.0
2016-Aug-28 18:30N 34°09' E 135°09'0 0.0
2016-Aug-28 17:33N 34°09' E 135°09'0 0.0
2016-Aug-28 16:33N 34°09' E 135°09'0 0.1
2016-Aug-28 15:33N 34°09' E 135°09'0 0.0
2016-Aug-28 14:33N 34°09' E 135°09'0 0.0
2016-Aug-28 13:30N 34°09' E 135°09'0 0.0
2016-Aug-28 12:30N 34°09' E 135°09'0 0.1
2016-Aug-28 11:33N 34°09' E 135°09'0 0.0
2016-Aug-28 10:33N 34°09' E 135°09'0 0.1
2016-Aug-28 09:33N 34°09' E 135°09'0 0.0
2016-Aug-28 08:30N 34°09' E 135°09'1 1.5
2016-Aug-28 07:33N 34°10' E 135°08'1111.4
2016-Aug-28 06:33N 34°19' E 134°59'1212.3
2016-Aug-28 05:33N 34°27' E 135°10'1313.3
2016-Aug-28 04:33N 34°33' E 135°24'1 0.8
2016-Aug-28 03:22N 34°33' E 135°25'0 0.0
2016-Aug-28 02:32N 34°33' E 135°25'0 0.0
2016-Aug-28 01:33N 34°33' E 135°25'0 0.0
2016-Aug-28 00:33N 34°33' E 135°25'2 2.4
2016-Aug-27 23:33N 34°33' E 135°22'3 2.5
2016-Aug-27 22:32N 34°32' E 135°19'0 0.0
2016-Aug-27 21:32N 34°32' E 135°19'0 0.0
2016-Aug-27 20:33N 34°32' E 135°19'0 0.0
2016-Aug-27 19:33N 34°32' E 135°19'0 0.0
2016-Aug-27 18:32N 34°32' E 135°19'0 0.0
2016-Aug-27 17:26N 34°32' E 135°19'0 0.0
2016-Aug-27 16:26N 34°32' E 135°19'0 0.0
2016-Aug-27 15:32N 34°32' E 135°19'0 0.0
2016-Aug-27 14:32N 34°32' E 135°19'0 0.0
2016-Aug-27 13:32N 34°32' E 135°19'0 0.0
2016-Aug-27 12:32N 34°32' E 135°19'0 0.0
2016-Aug-27 11:32N 34°32' E 135°19'0 0.0
2016-Aug-27 10:32N 34°32' E 135°19'0 0.0
2016-Aug-27 09:32N 34°32' E 135°19'0 0.0
2016-Aug-27 08:32N 34°32' E 135°19'0 0.0
2016-Aug-27 07:32N 34°32' E 135°20'5 0.9
2016-Aug-27 02:33N 34°33' E 135°14'1514.2
2016-Aug-27 01:28N 34°36' E 134°56'1 0.0
2016-Aug-25 06:27N 34°37' E 134°57'2211.4
2016-Aug-25 04:32N 34°16' E 134°60'10 2.4
2016-Aug-25 00:10N 34°07' E 135°07'2 3.4
2016-Aug-24 23:31N 34°09' E 135°09'0 0.0
2016-Aug-24 22:31N 34°09' E 135°09'0 0.0
2016-Aug-24 21:31N 34°09' E 135°09'0 0.0
2016-Aug-24 20:31N 34°09' E 135°09'0 0.1
2016-Aug-24 19:31N 34°09' E 135°09'0 0.1
2016-Aug-24 18:31N 34°09' E 135°09'0 0.0
2016-Aug-24 17:31N 34°09' E 135°09'0 0.0
2016-Aug-24 16:31N 34°09' E 135°09'0 0.0
2016-Aug-24 15:31N 34°09' E 135°09'0 0.0
2016-Aug-24 14:31N 34°09' E 135°09'0 0.0
2016-Aug-24 13:25N 34°09' E 135°09'0 0.0
2016-Aug-24 12:25N 34°09' E 135°09'0 0.0
2016-Aug-24 11:25N 34°09' E 135°09'0 0.0
2016-Aug-24 10:31N 34°09' E 135°09'0 0.0
2016-Aug-24 09:31N 34°09' E 135°09'0 0.0
2016-Aug-24 08:31N 34°09' E 135°09'0 0.0
2016-Aug-24 07:31N 34°09' E 135°09'0 0.0
2016-Aug-24 06:31N 34°09' E 135°09'6 3.2
2016-Aug-24 04:33N 34°11' E 135°02'1 0.6
2016-Aug-24 03:32N 34°11' E 135°02'6 6.1
2016-Aug-24 02:33N 34°09' E 135°09'2 0.7
2016-Aug-23 23:18N 34°09' E 135°11'2 2.3
2016-Aug-23 22:32N 34°10' E 135°09'0 0.0
2016-Aug-23 21:32N 34°10' E 135°09'0 0.0
2016-Aug-23 20:32N 34°10' E 135°09'0 0.0
2016-Aug-23 19:32N 34°10' E 135°09'1 0.6
2016-Aug-23 18:34N 34°10' E 135°09'1211.8
2016-Aug-23 17:30N 34°19' E 134°59'1313.3
2016-Aug-23 16:32N 34°32' E 135°02'7 0.2
2016-Aug-22 07:31N 34°36' E 134°54'9 9.2
2016-Aug-22 06:33N 34°35' E 135°05'1512.2
2016-Aug-22 05:22N 34°21' E 135°01'1012.2
2016-Aug-22 04:33N 34°11' E 135°00'8 1.1
2016-Aug-21 21:24N 34°04' E 135°03'8 7.9
2016-Aug-21 20:26N 34°10' E 135°09'0 0.0
2016-Aug-21 19:32N 34°10' E 135°09'0 0.0
2016-Aug-21 18:32N 34°10' E 135°09'0 0.0
2016-Aug-21 17:32N 34°10' E 135°09'0 0.0
2016-Aug-21 16:32N 34°10' E 135°09'0 0.0
2016-Aug-21 15:29N 34°10' E 135°09'0 0.0
2016-Aug-21 14:29N 34°10' E 135°09'0 0.1
2016-Aug-21 13:32N 34°10' E 135°09'0 0.1
2016-Aug-21 12:29N 34°10' E 135°09'0 0.0
2016-Aug-21 11:29N 34°10' E 135°09'0 0.0
2016-Aug-21 10:32N 34°10' E 135°09'0 0.0
2016-Aug-21 09:32N 34°10' E 135°09'0 0.1
2016-Aug-21 08:32N 34°10' E 135°09'0 0.0
2016-Aug-21 07:32N 34°10' E 135°09'0 0.1
2016-Aug-21 06:05N 34°10' E 135°09'0 0.0
2016-Aug-21 05:29N 34°10' E 135°09'0 0.0
2016-Aug-21 04:32N 34°10' E 135°09'0 0.0
2016-Aug-21 03:05N 34°10' E 135°09'0 0.0
2016-Aug-21 02:32N 34°10' E 135°09'0 0.1
2016-Aug-21 01:29N 34°10' E 135°09'0 0.0
2016-Aug-20 23:32N 34°10' E 135°09'0 0.0
2016-Aug-20 22:32N 34°10' E 135°09'0 0.0
2016-Aug-20 21:32N 34°10' E 135°09'0 0.1
2016-Aug-20 20:32N 34°10' E 135°09'0 0.0
2016-Aug-20 19:32N 34°10' E 135°09'0 0.0
2016-Aug-20 18:29N 34°10' E 135°09'0 0.0
2016-Aug-20 17:32N 34°10' E 135°09'0 0.0
2016-Aug-20 16:32N 34°10' E 135°09'0 0.0
2016-Aug-20 15:29N 34°10' E 135°09'0 0.1
2016-Aug-20 14:26N 34°10' E 135°09'0 0.1
2016-Aug-20 13:32N 34°10' E 135°09'0 0.0
2016-Aug-20 12:29N 34°10' E 135°09'0 0.0
2016-Aug-20 11:32N 34°10' E 135°09'0 0.0
2016-Aug-20 10:29N 34°10' E 135°09'0 0.1
2016-Aug-20 09:29N 34°10' E 135°09'0 0.1
2016-Aug-20 08:29N 34°10' E 135°09'2 1.2
2016-Aug-20 06:33N 34°08' E 135°07'1 0.7
2016-Aug-20 05:33N 34°07' E 135°07'0 0.0
2016-Aug-20 04:21N 34°07' E 135°07'0 0.0
2016-Aug-20 03:25N 34°07' E 135°07'0 0.0
2016-Aug-20 02:33N 34°07' E 135°07'0 0.0
2016-Aug-20 01:32N 34°07' E 135°07'0 0.1
2016-Aug-20 00:31N 34°07' E 135°07'6 5.8
2016-Aug-19 23:32N 34°13' E 135°09'0 0.0
2016-Aug-19 22:32N 34°13' E 135°09'0 0.0
2016-Aug-19 21:32N 34°13' E 135°09'0 0.0
2016-Aug-19 20:32N 34°13' E 135°09'0 0.0
2016-Aug-19 19:32N 34°13' E 135°09'0 0.0
2016-Aug-19 18:32N 34°13' E 135°09'0 0.0
2016-Aug-19 17:32N 34°13' E 135°09'0 0.0
2016-Aug-19 16:32N 34°13' E 135°09'0 0.0
2016-Aug-19 15:32N 34°13' E 135°09'0 0.0
2016-Aug-19 14:32N 34°13' E 135°09'0 0.0
2016-Aug-19 13:32N 34°13' E 135°09'0 0.0
2016-Aug-19 12:32N 34°13' E 135°09'0 0.0
2016-Aug-19 11:32N 34°13' E 135°09'0 0.0
2016-Aug-19 10:32N 34°13' E 135°09'0 0.0
2016-Aug-19 09:32N 34°13' E 135°09'0 0.0
2016-Aug-19 08:32N 34°13' E 135°09'0 0.0
2016-Aug-19 07:32N 34°13' E 135°09'0 0.0
2016-Aug-19 06:32N 34°13' E 135°09'4 4.4
2016-Aug-19 05:34N 34°11' E 135°04'  

Dump ship's entire track history